Time;durP1;ratioP1;P1;durP2;ratioP2;P2;SDS_P1;SDS_P2;PMS_P1;PMS_P2;Temp;Humidity;BMP_temperature;BMP_pressure;BME280_temperature;BME280_humidity;BME280_pressure;Samples;Min_cycle;Max_cycle;Signal;HPM_P1;HPM_P2
2020/03/21 00:00:22;;;;;;;6.35;5.45;;;;;;;9.92;90.30176;95323.44;;;;
2020/03/21 00:01:37;;;;;;;9.1;5.749999;;;;;;;9.92;90.49316;95334.23;;;;
2020/03/21 00:02:49;;;;;;;9.1;5.749999;;;;;;;9.92;90.49316;95334.23;;;;
2020/03/21 00:03:50;;;;;;;7.699998;6.100001;;;;;;;9.9;90.74414;95329.6;;;;
2020/03/21 00:04:51;;;;;;;7.699998;6.100001;;;;;;;9.9;90.74414;95329.6;;;;
2020/03/21 00:05:55;;;;;;;6.5;5.75;;;;;;;9.9;90.99805;95324.3;;;;
2020/03/21 00:06:56;;;;;;;6.5;5.75;;;;;;;9.9;90.99805;95324.3;;;;
2020/03/21 00:07:59;;;;;;;6.5;5.75;;;;;;;9.9;90.99805;95324.3;;;;
2020/03/21 00:09:03;;;;;;;6.85;6.149999;;;;;;;9.89;91.27441;95325.36;;;;
2020/03/21 00:10:28;;;;;;;6.85;6.149999;;;;;;;9.89;91.27441;95325.36;;;;
2020/03/21 00:12:19;;;;;;;9.200001;6;;;;;;;9.88;91.41895;95318.72;;;;
2020/03/21 00:13:20;;;;;;;9.200001;6;;;;;;;9.88;91.41895;95318.72;;;;
2020/03/21 00:14:50;;;;;;;7.649999;5.85;;;;;;;9.87;91.73828;95326.95;;;;
2020/03/21 00:15:51;;;;;;;7.649999;5.85;;;;;;;9.87;91.73828;95326.95;;;;
2020/03/21 00:16:58;;;;;;;7.649999;5.85;;;;;;;9.87;91.73828;95326.95;;;;
2020/03/21 00:17:58;;;;;;;7.649999;5.85;;;;;;;9.87;91.73828;95326.95;;;;
2020/03/21 00:19:04;;;;;;;7.649999;5.85;;;;;;;9.87;91.73828;95326.95;;;;
2020/03/21 00:20:07;;;;;;;7.649999;5.85;;;;;;;9.87;91.73828;95326.95;;;;
2020/03/21 00:21:08;;;;;;;7.649999;5.85;;;;;;;9.87;91.73828;95326.95;;;;
2020/03/21 00:22:10;;;;;;;7.649999;5.85;;;;;;;9.87;91.73828;95326.95;;;;
2020/03/21 00:23:13;;;;;;;7.649999;5.85;;;;;;;9.87;91.73828;95326.95;;;;
2020/03/21 00:24:14;;;;;;;7.649999;5.85;;;;;;;9.87;91.73828;95326.95;;;;
2020/03/21 00:25:19;;;;;;;6.55;5.75;;;;;;;9.48;89.87207;95321.17;;;;
2020/03/21 00:26:20;;;;;;;6.55;5.75;;;;;;;9.48;89.87207;95321.17;;;;
2020/03/21 00:27:23;;;;;;;8.95;6.55;;;;;;;9.47;90.79297;95329.49;;;;
2020/03/21 00:28:24;;;;;;;8.95;6.55;;;;;;;9.47;90.79297;95329.49;;;;
2020/03/21 00:29:25;;;;;;;8.95;6.55;;;;;;;9.47;90.79297;95329.49;;;;
2020/03/21 00:30:26;;;;;;;8.850001;6.6;;;;;;;9.5;91.41406;95322.69;;;;
2020/03/21 00:31:36;;;;;;;8.850001;6.6;;;;;;;9.5;91.41406;95322.69;;;;
2020/03/21 00:32:37;;;;;;;7.650001;6.45;;;;;;;9.54;91.95508;95317.56;;;;
2020/03/21 00:33:37;;;;;;;7.650001;6.45;;;;;;;9.54;91.95508;95317.56;;;;
2020/03/21 00:34:38;;;;;;;7.650001;6.45;;;;;;;9.54;91.95508;95317.56;;;;
2020/03/21 00:35:38;;;;;;;7.650001;6.45;;;;;;;9.54;91.95508;95317.56;;;;
2020/03/21 00:36:39;;;;;;;7.650001;6.45;;;;;;;9.54;91.95508;95317.56;;;;
2020/03/21 00:37:39;;;;;;;7.650001;6.45;;;;;;;9.54;91.95508;95317.56;;;;
2020/03/21 00:38:40;;;;;;;7.650001;6.45;;;;;;;9.54;91.95508;95317.56;;;;
2020/03/21 00:39:49;;;;;;;7.650001;6.45;;;;;;;9.54;91.95508;95317.56;;;;
2020/03/21 00:40:50;;;;;;;7.650001;6.45;;;;;;;9.54;91.95508;95317.56;;;;
2020/03/21 00:41:53;;;;;;;7.650001;6.45;;;;;;;9.54;91.95508;95317.56;;;;
2020/03/21 00:42:53;;;;;;;8.8;6.5;;;;;;;9.29;90.6084;95314.59;;;;
2020/03/21 00:43:54;;;;;;;8.8;6.5;;;;;;;9.29;90.6084;95314.59;;;;
2020/03/21 00:44:55;;;;;;;8.8;6.5;;;;;;;9.29;90.6084;95314.59;;;;
2020/03/21 00:45:56;;;;;;;9.749999;6.75;;;;;;;9.3;91.56445;95312.31;;;;
2020/03/21 00:46:58;;;;;;;9.749999;6.75;;;;;;;9.3;91.56445;95312.31;;;;
2020/03/21 00:47:58;;;;;;;9.749999;6.75;;;;;;;9.3;91.56445;95312.31;;;;
2020/03/21 00:48:59;;;;;;;10.45;6.75;;;;;;;9.38;92.18555;95305.25;;;;
2020/03/21 00:49:59;;;;;;;10.45;6.75;;;;;;;9.38;92.18555;95305.25;;;;
2020/03/21 00:51:00;;;;;;;10.1;6.699999;;;;;;;9.44;92.71875;95306.53;;;;
2020/03/21 00:52:00;;;;;;;10.1;6.699999;;;;;;;9.44;92.71875;95306.53;;;;
2020/03/21 00:53:01;;;;;;;10.1;6.699999;;;;;;;9.44;92.71875;95306.53;;;;
2020/03/21 00:54:04;;;;;;;10.1;6.699999;;;;;;;9.44;92.71875;95306.53;;;;
2020/03/21 00:55:05;;;;;;;10.1;6.699999;;;;;;;9.44;92.71875;95306.53;;;;
2020/03/21 00:56:08;;;;;;;10.1;6.699999;;;;;;;9.44;92.71875;95306.53;;;;
2020/03/21 00:57:09;;;;;;;10.1;6.699999;;;;;;;9.44;92.71875;95306.53;;;;
2020/03/21 00:58:09;;;;;;;10.1;6.699999;;;;;;;9.44;92.71875;95306.53;;;;
2020/03/21 00:59:15;;;;;;;10.1;6.699999;;;;;;;9.44;92.71875;95306.53;;;;
2020/03/21 01:00:16;;;;;;;10.1;6.699999;;;;;;;9.44;92.71875;95306.53;;;;
2020/03/21 01:01:30;;;;;;;10.15;6.95;;;;;;;9.24;91.26563;95297.88;;;;
2020/03/21 01:02:37;;;;;;;10.15;6.95;;;;;;;9.24;91.26563;95297.88;;;;
2020/03/21 01:03:42;;;;;;;10.15;6.95;;;;;;;9.24;91.26563;95297.88;;;;
2020/03/21 01:04:48;;;;;;;11.6;7.5;;;;;;;9.26;92.24609;95297.64;;;;
2020/03/21 01:06:00;;;;;;;11.6;7.5;;;;;;;9.26;92.24609;95297.64;;;;
2020/03/21 01:07:06;;;;;;;10.55;7.849999;;;;;;;9.32;92.91797;95292.58;;;;
2020/03/21 01:08:23;;;;;;;10.55;7.849999;;;;;;;9.32;92.91797;95292.58;;;;
2020/03/21 01:09:39;;;;;;;9.9;7.75;;;;;;;9.38;93.49023;95290.84;;;;
2020/03/21 01:14:39;;;;;;;9.9;7.75;;;;;;;9.38;93.49023;95290.84;;;;
2020/03/21 01:15:40;;;;;;;9.9;7.75;;;;;;;9.38;93.49023;95290.84;;;;
2020/03/21 01:16:53;;;;;;;9.9;7.75;;;;;;;9.38;93.49023;95290.84;;;;
2020/03/21 01:17:54;;;;;;;9.9;7.75;;;;;;;9.38;93.49023;95290.84;;;;
2020/03/21 01:18:56;;;;;;;9.9;7.75;;;;;;;9.38;93.49023;95290.84;;;;
2020/03/21 01:19:57;;;;;;;9.9;7.75;;;;;;;9.38;93.49023;95290.84;;;;
2020/03/21 01:20:57;;;;;;;8.549999;7.400001;;;;;;;9.14;92.37109;95277.79;;;;
2020/03/21 01:21:59;;;;;;;8.549999;7.400001;;;;;;;9.14;92.37109;95277.79;;;;
2020/03/21 01:23:06;;;;;;;11.05;8.000002;;;;;;;9.16;93.44629;95271.66;;;;
2020/03/21 01:24:10;;;;;;;11.05;8.000002;;;;;;;9.16;93.44629;95271.66;;;;
2020/03/21 01:25:18;;;;;;;11.05;8.000002;;;;;;;9.16;93.44629;95271.66;;;;
2020/03/21 01:26:19;;;;;;;11.05;8.000002;;;;;;;9.16;93.44629;95271.66;;;;
2020/03/21 01:27:24;;;;;;;11.05;8.000002;;;;;;;9.16;93.44629;95271.66;;;;
2020/03/21 01:28:30;;;;;;;11.05;8.000002;;;;;;;9.16;93.44629;95271.66;;;;
2020/03/21 01:29:33;;;;;;;11.05;8.000002;;;;;;;9.16;93.44629;95271.66;;;;
2020/03/21 01:30:44;;;;;;;11.05;8.000002;;;;;;;9.16;93.44629;95271.66;;;;
2020/03/21 01:31:50;;;;;;;11.05;8.000002;;;;;;;9.16;93.44629;95271.66;;;;
2020/03/21 01:32:51;;;;;;;11.05;8.000002;;;;;;;9.16;93.44629;95271.66;;;;
2020/03/21 01:38:07;;;;;;;10;7.550001;;;;;;;9.05;93.55957;95267.55;;;;
2020/03/21 01:39:07;;;;;;;10;7.550001;;;;;;;9.05;93.55957;95267.55;;;;
2020/03/21 01:41:15;;;;;;;10;7.550001;;;;;;;9.05;93.55957;95267.55;;;;
2020/03/21 01:42:22;;;;;;;10;7.550001;;;;;;;9.05;93.55957;95267.55;;;;
2020/03/21 01:43:25;;;;;;;10;7.550001;;;;;;;9.05;93.55957;95267.55;;;;
2020/03/21 01:44:26;;;;;;;10;7.550001;;;;;;;9.05;93.55957;95267.55;;;;
2020/03/21 01:45:26;;;;;;;10;7.550001;;;;;;;9.05;93.55957;95267.55;;;;
2020/03/21 01:46:29;;;;;;;10;7.550001;;;;;;;9.05;93.55957;95267.55;;;;
2020/03/21 01:47:29;;;;;;;8.350001;7.1;;;;;;;8.95;92.47754;95267.69;;;;
2020/03/21 01:48:30;;;;;;;8.350001;7.1;;;;;;;8.95;92.47754;95267.69;;;;
2020/03/21 01:49:30;;;;;;;9.899999;7.55;;;;;;;8.98;93.4502;95264.01;;;;
2020/03/21 01:50:31;;;;;;;9.899999;7.55;;;;;;;8.98;93.4502;95264.01;;;;
2020/03/21 01:51:33;;;;;;;9.899999;7.55;;;;;;;8.98;93.4502;95264.01;;;;
2020/03/21 01:52:33;;;;;;;9.899999;7.55;;;;;;;8.98;93.4502;95264.01;;;;
2020/03/21 01:53:33;;;;;;;9.899999;7.55;;;;;;;8.98;93.4502;95264.01;;;;
2020/03/21 01:54:36;;;;;;;9.899999;7.55;;;;;;;8.98;93.4502;95264.01;;;;
2020/03/21 01:55:37;;;;;;;9.899999;7.55;;;;;;;8.98;93.4502;95264.01;;;;
2020/03/21 01:56:38;;;;;;;9.899999;7.55;;;;;;;8.98;93.4502;95264.01;;;;
2020/03/21 01:57:39;;;;;;;9.899999;7.55;;;;;;;8.98;93.4502;95264.01;;;;
2020/03/21 01:58:39;;;;;;;9.899999;7.55;;;;;;;8.98;93.4502;95264.01;;;;
2020/03/21 01:59:43;;;;;;;9.899999;7.55;;;;;;;8.98;93.4502;95264.01;;;;
2020/03/21 02:00:44;;;;;;;10.1;7.099999;;;;;;;8.92;92.9375;95259.11;;;;
2020/03/21 02:01:50;;;;;;;10.1;7.099999;;;;;;;8.92;92.9375;95259.11;;;;
2020/03/21 02:02:53;;;;;;;9.35;7.4;;;;;;;8.97;93.82715;95254.83;;;;
2020/03/21 02:03:57;;;;;;;9.35;7.4;;;;;;;8.97;93.82715;95254.83;;;;
2020/03/21 02:04:58;;;;;;;9.35;7.4;;;;;;;8.97;93.82715;95254.83;;;;
2020/03/21 02:05:58;;;;;;;9.35;7.4;;;;;;;8.97;93.82715;95254.83;;;;
2020/03/21 02:06:59;;;;;;;9.35;7.4;;;;;;;8.97;93.82715;95254.83;;;;
2020/03/21 02:07:59;;;;;;;9.35;7.4;;;;;;;8.97;93.82715;95254.83;;;;
2020/03/21 02:09:00;;;;;;;9.35;7.4;;;;;;;8.97;93.82715;95254.83;;;;
2020/03/21 02:10:10;;;;;;;9.35;7.4;;;;;;;8.97;93.82715;95254.83;;;;
2020/03/21 02:11:11;;;;;;;9.35;7.4;;;;;;;8.97;93.82715;95254.83;;;;
2020/03/21 02:12:13;;;;;;;9.35;7.4;;;;;;;8.97;93.82715;95254.83;;;;
2020/03/21 02:13:14;;;;;;;9.15;7.5;;;;;;;8.94;92.62402;95257.01;;;;
2020/03/21 02:14:15;;;;;;;9.15;7.5;;;;;;;8.94;92.62402;95257.01;;;;
2020/03/21 02:15:16;;;;;;;9.15;7.5;;;;;;;8.94;92.62402;95257.01;;;;
2020/03/21 02:16:29;;;;;;;9.15;7.5;;;;;;;8.94;92.62402;95257.01;;;;
2020/03/21 02:17:32;;;;;;;9.15;7.5;;;;;;;8.94;92.62402;95257.01;;;;
2020/03/21 02:18:33;;;;;;;9.15;7.5;;;;;;;8.94;92.62402;95257.01;;;;
2020/03/21 02:19:34;;;;;;;9.15;7.5;;;;;;;8.94;92.62402;95257.01;;;;
2020/03/21 02:20:36;;;;;;;9.15;7.5;;;;;;;8.94;92.62402;95257.01;;;;
2020/03/21 02:21:37;;;;;;;9.15;7.5;;;;;;;8.94;92.62402;95257.01;;;;
2020/03/21 02:22:37;;;;;;;9.15;7.5;;;;;;;8.94;92.62402;95257.01;;;;
2020/03/21 02:23:38;;;;;;;9.15;7.5;;;;;;;8.94;92.62402;95257.01;;;;
2020/03/21 02:24:41;;;;;;;10.55;7.7;;;;;;;8.91;91.98145;95272.29;;;;
2020/03/21 02:25:48;;;;;;;10.55;7.7;;;;;;;8.91;91.98145;95272.29;;;;
2020/03/21 02:26:48;;;;;;;10.55;7.7;;;;;;;8.91;91.98145;95272.29;;;;
2020/03/21 02:27:50;;;;;;;10.55;7.7;;;;;;;8.91;91.98145;95272.29;;;;
2020/03/21 02:28:51;;;;;;;10.55;7.7;;;;;;;8.91;91.98145;95272.29;;;;
2020/03/21 02:29:52;;;;;;;10.55;7.7;;;;;;;8.91;91.98145;95272.29;;;;
2020/03/21 02:30:55;;;;;;;10.55;7.7;;;;;;;8.91;91.98145;95272.29;;;;
2020/03/21 02:31:55;;;;;;;10.55;7.7;;;;;;;8.91;91.98145;95272.29;;;;
2020/03/21 02:32:59;;;;;;;10.55;7.7;;;;;;;8.91;91.98145;95272.29;;;;
2020/03/21 02:34:07;;;;;;;10.55;7.7;;;;;;;8.91;91.98145;95272.29;;;;
2020/03/21 02:35:09;;;;;;;10.85;8.600001;;;;;;;8.84;91.41602;95269.27;;;;
2020/03/21 02:36:09;;;;;;;10.85;8.600001;;;;;;;8.84;91.41602;95269.27;;;;
2020/03/21 02:37:10;;;;;;;10.9;8.549998;;;;;;;8.91;92.73438;95268.25;;;;
2020/03/21 02:38:16;;;;;;;10.9;8.549998;;;;;;;8.91;92.73438;95268.25;;;;
2020/03/21 02:39:21;;;;;;;10.9;8.549998;;;;;;;8.91;92.73438;95268.25;;;;
2020/03/21 02:40:58;;;;;;;10.9;8.549998;;;;;;;8.91;92.73438;95268.25;;;;
2020/03/21 02:41:59;;;;;;;10.9;8.549998;;;;;;;8.91;92.73438;95268.25;;;;
2020/03/21 02:43:00;;;;;;;10.9;8.549998;;;;;;;8.91;92.73438;95268.25;;;;
2020/03/21 02:44:00;;;;;;;10.9;8.549998;;;;;;;8.91;92.73438;95268.25;;;;
2020/03/21 02:45:00;;;;;;;10.9;8.549998;;;;;;;8.91;92.73438;95268.25;;;;
2020/03/21 02:46:09;;;;;;;10.9;8.549998;;;;;;;8.91;92.73438;95268.25;;;;
2020/03/21 02:47:09;;;;;;;10.9;8.549998;;;;;;;8.91;92.73438;95268.25;;;;
2020/03/21 02:48:15;;;;;;;11.15;9.200001;;;;;;;8.91;91.89648;95265.14;;;;
2020/03/21 02:49:15;;;;;;;11.15;9.200001;;;;;;;8.91;91.89648;95265.14;;;;
2020/03/21 02:50:16;;;;;;;14.05;11.2;;;;;;;8.97;93.18066;95257.93;;;;
2020/03/21 02:51:17;;;;;;;14.05;11.2;;;;;;;8.97;93.18066;95257.93;;;;
2020/03/21 02:52:18;;;;;;;14.05;11.2;;;;;;;8.97;93.18066;95257.93;;;;
2020/03/21 02:53:19;;;;;;;14.05;11.2;;;;;;;8.97;93.18066;95257.93;;;;
2020/03/21 02:54:19;;;;;;;14.05;11.2;;;;;;;8.97;93.18066;95257.93;;;;
2020/03/21 02:55:19;;;;;;;14.05;11.2;;;;;;;8.97;93.18066;95257.93;;;;
2020/03/21 02:56:21;;;;;;;14.05;11.2;;;;;;;8.97;93.18066;95257.93;;;;
2020/03/21 02:57:21;;;;;;;14.05;11.2;;;;;;;8.97;93.18066;95257.93;;;;
2020/03/21 02:58:22;;;;;;;14.05;11.2;;;;;;;8.97;93.18066;95257.93;;;;
2020/03/21 02:59:23;;;;;;;14.05;11.2;;;;;;;8.97;93.18066;95257.93;;;;
2020/03/21 03:00:23;;;;;;;14.05;11.2;;;;;;;8.97;93.18066;95257.93;;;;
2020/03/21 03:01:39;;;;;;;15.35;11.4;;;;;;;8.94;92.41211;95255.67;;;;
2020/03/21 03:02:40;;;;;;;15.35;11.4;;;;;;;8.94;92.41211;95255.67;;;;
2020/03/21 03:03:40;;;;;;;18.75;13.05;;;;;;;8.99;93.61914;95254.49;;;;
2020/03/21 03:04:41;;;;;;;18.75;13.05;;;;;;;8.99;93.61914;95254.49;;;;
2020/03/21 03:05:44;;;;;;;18.75;13.05;;;;;;;8.99;93.61914;95254.49;;;;
2020/03/21 03:06:54;;;;;;;18.75;13.05;;;;;;;8.99;93.61914;95254.49;;;;
2020/03/21 03:07:56;;;;;;;18.75;13.05;;;;;;;8.99;93.61914;95254.49;;;;
2020/03/21 03:08:56;;;;;;;18.75;13.05;;;;;;;8.99;93.61914;95254.49;;;;
2020/03/21 03:09:59;;;;;;;18.75;13.05;;;;;;;8.99;93.61914;95254.49;;;;
2020/03/21 03:11:18;;;;;;;18.75;13.05;;;;;;;8.99;93.61914;95254.49;;;;
2020/03/21 03:12:24;;;;;;;18.75;13.05;;;;;;;8.99;93.61914;95254.49;;;;
2020/03/21 03:13:25;;;;;;;18.75;13.05;;;;;;;8.99;93.61914;95254.49;;;;
2020/03/21 03:14:26;;;;;;;51.4;33.35;;;;;;;8.96;92.78711;95263.42;;;;
2020/03/21 03:15:26;;;;;;;51.4;33.35;;;;;;;8.96;92.78711;95263.42;;;;
2020/03/21 03:16:31;;;;;;;51.4;33.35;;;;;;;8.96;92.78711;95263.42;;;;
2020/03/21 03:17:31;;;;;;;50.25;34.4;;;;;;;9.01;93.86719;95260.06;;;;
2020/03/21 03:18:32;;;;;;;50.25;34.4;;;;;;;9.01;93.86719;95260.06;;;;
2020/03/21 03:19:32;;;;;;;50.25;34.4;;;;;;;9.01;93.86719;95260.06;;;;
2020/03/21 03:20:32;;;;;;;50.25;34.4;;;;;;;9.01;93.86719;95260.06;;;;
2020/03/21 03:21:33;;;;;;;50.25;34.4;;;;;;;9.01;93.86719;95260.06;;;;
2020/03/21 03:22:33;;;;;;;50.25;34.4;;;;;;;9.01;93.86719;95260.06;;;;
2020/03/21 03:23:34;;;;;;;50.25;34.4;;;;;;;9.01;93.86719;95260.06;;;;
2020/03/21 03:24:34;;;;;;;50.25;34.4;;;;;;;9.01;93.86719;95260.06;;;;
2020/03/21 03:25:35;;;;;;;50.25;34.4;;;;;;;9.01;93.86719;95260.06;;;;
2020/03/21 03:26:35;;;;;;;50.25;34.4;;;;;;;9.01;93.86719;95260.06;;;;
2020/03/21 03:27:36;;;;;;;68.35001;43.25;;;;;;;8.98;93.01367;95261.42;;;;
2020/03/21 03:28:36;;;;;;;68.35001;43.25;;;;;;;8.98;93.01367;95261.42;;;;
2020/03/21 03:29:37;;;;;;;68.35001;43.25;;;;;;;8.98;93.01367;95261.42;;;;
2020/03/21 03:30:38;;;;;;;71.35;46.15;;;;;;;9.03;94.21094;95257.14;;;;
2020/03/21 03:31:39;;;;;;;71.35;46.15;;;;;;;9.03;94.21094;95257.14;;;;
2020/03/21 03:32:40;;;;;;;71.35;46.15;;;;;;;9.03;94.21094;95257.14;;;;
2020/03/21 03:33:40;;;;;;;71.35;46.15;;;;;;;9.03;94.21094;95257.14;;;;
2020/03/21 03:34:41;;;;;;;71.35;46.15;;;;;;;9.03;94.21094;95257.14;;;;
2020/03/21 03:35:41;;;;;;;71.35;46.15;;;;;;;9.03;94.21094;95257.14;;;;
2020/03/21 03:36:42;;;;;;;71.35;46.15;;;;;;;9.03;94.21094;95257.14;;;;
2020/03/21 03:37:42;;;;;;;71.35;46.15;;;;;;;9.03;94.21094;95257.14;;;;
2020/03/21 03:38:43;;;;;;;71.35;46.15;;;;;;;9.03;94.21094;95257.14;;;;
2020/03/21 03:39:44;;;;;;;71.35;46.15;;;;;;;9.03;94.21094;95257.14;;;;
2020/03/21 03:40:47;;;;;;;80.44999;49.05;;;;;;;8.97;93.25488;95257.93;;;;
2020/03/21 03:41:49;;;;;;;80.44999;49.05;;;;;;;8.97;93.25488;95257.93;;;;
2020/03/21 03:42:49;;;;;;;80.44999;49.05;;;;;;;8.97;93.25488;95257.93;;;;
2020/03/21 03:43:50;;;;;;;80.44999;49.05;;;;;;;8.97;93.25488;95257.93;;;;
2020/03/21 03:44:51;;;;;;;80.44999;49.05;;;;;;;8.97;93.25488;95257.93;;;;
2020/03/21 03:45:52;;;;;;;80.44999;49.05;;;;;;;8.97;93.25488;95257.93;;;;
2020/03/21 03:46:54;;;;;;;80.44999;49.05;;;;;;;8.97;93.25488;95257.93;;;;
2020/03/21 03:47:55;;;;;;;80.44999;49.05;;;;;;;8.97;93.25488;95257.93;;;;
2020/03/21 03:48:59;;;;;;;80.44999;49.05;;;;;;;8.97;93.25488;95257.93;;;;
2020/03/21 03:49:59;;;;;;;80.44999;49.05;;;;;;;8.97;93.25488;95257.93;;;;
2020/03/21 03:51:00;;;;;;;80.44999;49.05;;;;;;;8.97;93.25488;95257.93;;;;
2020/03/21 03:52:00;;;;;;;79.3;51.2;;;;;;;8.92;92.95703;95253.34;;;;
2020/03/21 03:53:01;;;;;;;79.3;51.2;;;;;;;8.92;92.95703;95253.34;;;;
2020/03/21 03:54:02;;;;;;;79.3;51.2;;;;;;;8.92;92.95703;95253.34;;;;
2020/03/21 03:55:03;;;;;;;79.3;51.2;;;;;;;8.92;92.95703;95253.34;;;;
2020/03/21 03:56:03;;;;;;;79.3;51.2;;;;;;;8.92;92.95703;95253.34;;;;
2020/03/21 03:57:04;;;;;;;79.3;51.2;;;;;;;8.92;92.95703;95253.34;;;;
2020/03/21 03:58:04;;;;;;;79.3;51.2;;;;;;;8.92;92.95703;95253.34;;;;
2020/03/21 03:59:06;;;;;;;79.3;51.2;;;;;;;8.92;92.95703;95253.34;;;;
2020/03/21 04:00:07;;;;;;;79.3;51.2;;;;;;;8.92;92.95703;95253.34;;;;
2020/03/21 04:01:18;;;;;;;79.3;51.2;;;;;;;8.92;92.95703;95253.34;;;;
2020/03/21 04:02:19;;;;;;;90.39999;52.75001;;;;;;;8.84;92.59082;95249.18;;;;
2020/03/21 04:03:19;;;;;;;90.39999;52.75001;;;;;;;8.84;92.59082;95249.18;;;;
2020/03/21 04:04:22;;;;;;;90.39999;52.75001;;;;;;;8.84;92.59082;95249.18;;;;
2020/03/21 04:05:22;;;;;;;91.25;54.55;;;;;;;8.9;93.80078;95255.02;;;;
2020/03/21 04:06:23;;;;;;;91.25;54.55;;;;;;;8.9;93.80078;95255.02;;;;
2020/03/21 04:07:24;;;;;;;91.25;54.55;;;;;;;8.9;93.80078;95255.02;;;;
2020/03/21 04:08:24;;;;;;;91.25;54.55;;;;;;;8.9;93.80078;95255.02;;;;
2020/03/21 04:09:29;;;;;;;91.25;54.55;;;;;;;8.9;93.80078;95255.02;;;;
2020/03/21 04:10:30;;;;;;;91.25;54.55;;;;;;;8.9;93.80078;95255.02;;;;
2020/03/21 04:11:30;;;;;;;91.25;54.55;;;;;;;8.9;93.80078;95255.02;;;;
2020/03/21 04:12:31;;;;;;;91.25;54.55;;;;;;;8.9;93.80078;95255.02;;;;
2020/03/21 04:13:31;;;;;;;91.25;54.55;;;;;;;8.9;93.80078;95255.02;;;;
2020/03/21 04:14:32;;;;;;;91.25;54.55;;;;;;;8.9;93.80078;95255.02;;;;
2020/03/21 04:15:32;;;;;;;83.30001;51.45;;;;;;;8.83;93.12988;95258.32;;;;
2020/03/21 04:16:34;;;;;;;83.30001;51.45;;;;;;;8.83;93.12988;95258.32;;;;
2020/03/21 04:18:40;;;;;;;83.30001;51.45;;;;;;;8.83;93.12988;95258.32;;;;
2020/03/21 04:19:40;;;;;;;67.05;41.95;;;;;;;8.88;94.49805;95266.02;;;;
2020/03/21 04:21:40;;;;;;;67.05;41.95;;;;;;;8.88;94.49805;95266.02;;;;
2020/03/21 04:22:40;;;;;;;67.05;41.95;;;;;;;8.88;94.49805;95266.02;;;;
2020/03/21 04:23:40;;;;;;;67.05;41.95;;;;;;;8.88;94.49805;95266.02;;;;
2020/03/21 04:24:41;;;;;;;67.05;41.95;;;;;;;8.88;94.49805;95266.02;;;;
2020/03/21 04:25:41;;;;;;;67.05;41.95;;;;;;;8.88;94.49805;95266.02;;;;
2020/03/21 04:26:42;;;;;;;67.05;41.95;;;;;;;8.88;94.49805;95266.02;;;;
2020/03/21 04:27:44;;;;;;;67.05;41.95;;;;;;;8.88;94.49805;95266.02;;;;
2020/03/21 04:28:45;;;;;;;50.6;29.4;;;;;;;8.65;93.79004;95260.08;;;;
2020/03/21 04:29:45;;;;;;;50.6;29.4;;;;;;;8.65;93.79004;95260.08;;;;
2020/03/21 04:30:46;;;;;;;50.6;29.4;;;;;;;8.65;93.79004;95260.08;;;;
2020/03/21 04:31:48;;;;;;;52.45;30.35;;;;;;;8.63;94.81543;95264.35;;;;
2020/03/21 04:32:51;;;;;;;52.45;30.35;;;;;;;8.63;94.81543;95264.35;;;;
2020/03/21 04:33:52;;;;;;;52.45;30.35;;;;;;;8.63;94.81543;95264.35;;;;
2020/03/21 04:34:52;;;;;;;52.45;30.35;;;;;;;8.63;94.81543;95264.35;;;;
2020/03/21 04:35:53;;;;;;;52.45;30.35;;;;;;;8.63;94.81543;95264.35;;;;
2020/03/21 04:36:53;;;;;;;52.45;30.35;;;;;;;8.63;94.81543;95264.35;;;;
2020/03/21 04:37:54;;;;;;;52.45;30.35;;;;;;;8.63;94.81543;95264.35;;;;
2020/03/21 04:38:54;;;;;;;52.45;30.35;;;;;;;8.63;94.81543;95264.35;;;;
2020/03/21 04:39:55;;;;;;;52.45;30.35;;;;;;;8.63;94.81543;95264.35;;;;
2020/03/21 04:40:55;;;;;;;52.45;30.35;;;;;;;8.63;94.81543;95264.35;;;;
2020/03/21 04:41:56;;;;;;;38.45;23.15;;;;;;;8.32;94.36523;95273.05;;;;
2020/03/21 04:42:58;;;;;;;38.45;23.15;;;;;;;8.32;94.36523;95273.05;;;;
2020/03/21 04:43:58;;;;;;;38.45;23.15;;;;;;;8.32;94.36523;95273.05;;;;
2020/03/21 04:44:59;;;;;;;41;24.3;;;;;;;8.3;95.38672;95269.25;;;;
2020/03/21 04:46:00;;;;;;;41;24.3;;;;;;;8.3;95.38672;95269.25;;;;
2020/03/21 04:47:00;;;;;;;41;24.3;;;;;;;8.3;95.38672;95269.25;;;;
2020/03/21 04:48:00;;;;;;;41;24.3;;;;;;;8.3;95.38672;95269.25;;;;
2020/03/21 04:49:01;;;;;;;41;24.3;;;;;;;8.3;95.38672;95269.25;;;;
2020/03/21 04:50:01;;;;;;;41;24.3;;;;;;;8.3;95.38672;95269.25;;;;
2020/03/21 04:51:03;;;;;;;41;24.3;;;;;;;8.3;95.38672;95269.25;;;;
2020/03/21 04:52:03;;;;;;;41;24.3;;;;;;;8.3;95.38672;95269.25;;;;
2020/03/21 04:53:04;;;;;;;41;24.3;;;;;;;8.3;95.38672;95269.25;;;;
2020/03/21 04:54:05;;;;;;;41;24.3;;;;;;;8.3;95.38672;95269.25;;;;
2020/03/21 04:55:05;;;;;;;29;19.05;;;;;;;8.04;94.81152;95277.12;;;;
2020/03/21 04:56:09;;;;;;;29;19.05;;;;;;;8.04;94.81152;95277.12;;;;
2020/03/21 04:57:09;;;;;;;29;19.05;;;;;;;8.04;94.81152;95277.12;;;;
2020/03/21 04:58:10;;;;;;;29;19.05;;;;;;;8.04;94.81152;95277.12;;;;
2020/03/21 04:59:11;;;;;;;29;19.05;;;;;;;8.04;94.81152;95277.12;;;;
2020/03/21 05:00:11;;;;;;;29;19.05;;;;;;;8.04;94.81152;95277.12;;;;
2020/03/21 05:01:18;;;;;;;29;19.05;;;;;;;8.04;94.81152;95277.12;;;;
2020/03/21 05:02:18;;;;;;;29;19.05;;;;;;;8.04;94.81152;95277.12;;;;
2020/03/21 05:03:18;;;;;;;29;19.05;;;;;;;8.04;94.81152;95277.12;;;;
2020/03/21 05:04:19;;;;;;;29;19.05;;;;;;;8.04;94.81152;95277.12;;;;
2020/03/21 05:05:20;;;;;;;29;19.05;;;;;;;8.04;94.81152;95277.12;;;;
2020/03/21 05:06:20;;;;;;;27.75;18.3;;;;;;;7.86;94.74219;95262.16;;;;
2020/03/21 05:07:21;;;;;;;27.75;18.3;;;;;;;7.86;94.74219;95262.16;;;;
2020/03/21 05:08:22;;;;;;;27.75;18.3;;;;;;;7.86;94.74219;95262.16;;;;
2020/03/21 05:09:22;;;;;;;27.75;18.3;;;;;;;7.86;94.74219;95262.16;;;;
2020/03/21 05:10:25;;;;;;;27.75;18.3;;;;;;;7.86;94.74219;95262.16;;;;
2020/03/21 05:11:27;;;;;;;27.75;18.3;;;;;;;7.86;94.74219;95262.16;;;;
2020/03/21 05:12:28;;;;;;;27.75;18.3;;;;;;;7.86;94.74219;95262.16;;;;
2020/03/21 05:13:29;;;;;;;27.75;18.3;;;;;;;7.86;94.74219;95262.16;;;;
2020/03/21 05:14:29;;;;;;;27.75;18.3;;;;;;;7.86;94.74219;95262.16;;;;
2020/03/21 05:15:30;;;;;;;27.75;18.3;;;;;;;7.86;94.74219;95262.16;;;;
2020/03/21 05:16:30;;;;;;;22.3;15.15;;;;;;;7.7;94.61035;95291.05;;;;
2020/03/21 05:17:31;;;;;;;22.3;15.15;;;;;;;7.7;94.61035;95291.05;;;;
2020/03/21 05:18:31;;;;;;;22.3;15.15;;;;;;;7.7;94.61035;95291.05;;;;
2020/03/21 05:19:33;;;;;;;24;17.05;;;;;;;7.71;95.50195;95288.56;;;;
2020/03/21 05:20:33;;;;;;;24;17.05;;;;;;;7.71;95.50195;95288.56;;;;
2020/03/21 05:21:33;;;;;;;24;17.05;;;;;;;7.71;95.50195;95288.56;;;;
2020/03/21 05:22:34;;;;;;;24;17.05;;;;;;;7.71;95.50195;95288.56;;;;
2020/03/21 05:23:36;;;;;;;24;17.05;;;;;;;7.71;95.50195;95288.56;;;;
2020/03/21 05:24:36;;;;;;;24;17.05;;;;;;;7.71;95.50195;95288.56;;;;
2020/03/21 05:25:37;;;;;;;24;17.05;;;;;;;7.71;95.50195;95288.56;;;;
2020/03/21 05:26:37;;;;;;;24;17.05;;;;;;;7.71;95.50195;95288.56;;;;
2020/03/21 05:27:38;;;;;;;24;17.05;;;;;;;7.71;95.50195;95288.56;;;;
2020/03/21 05:28:39;;;;;;;24;17.05;;;;;;;7.71;95.50195;95288.56;;;;
2020/03/21 05:29:39;;;;;;;21.55;15;;;;;;;7.59;94.94531;95294.44;;;;
2020/03/21 05:30:39;;;;;;;21.55;15;;;;;;;7.59;94.94531;95294.44;;;;
2020/03/21 05:31:40;;;;;;;21.55;15;;;;;;;7.59;94.94531;95294.44;;;;
2020/03/21 05:32:40;;;;;;;21.55;15;;;;;;;7.59;94.94531;95294.44;;;;
2020/03/21 05:33:41;;;;;;;21.55;15;;;;;;;7.59;94.94531;95294.44;;;;
2020/03/21 05:34:41;;;;;;;21.55;15;;;;;;;7.59;94.94531;95294.44;;;;
2020/03/21 05:35:42;;;;;;;21.55;15;;;;;;;7.59;94.94531;95294.44;;;;
2020/03/21 05:36:43;;;;;;;21.55;15;;;;;;;7.59;94.94531;95294.44;;;;
2020/03/21 05:37:43;;;;;;;21.55;15;;;;;;;7.59;94.94531;95294.44;;;;
2020/03/21 05:38:46;;;;;;;21.55;15;;;;;;;7.59;94.94531;95294.44;;;;
2020/03/21 05:39:47;;;;;;;21.55;15;;;;;;;7.59;94.94531;95294.44;;;;
2020/03/21 05:40:49;;;;;;;21.15;15.05;;;;;;;7.45;94.9375;95290.58;;;;
2020/03/21 05:41:50;;;;;;;21.15;15.05;;;;;;;7.45;94.9375;95290.58;;;;
2020/03/21 05:42:50;;;;;;;21.15;15.05;;;;;;;7.45;94.9375;95290.58;;;;
2020/03/21 05:43:51;;;;;;;21.15;15.05;;;;;;;7.45;94.9375;95290.58;;;;
2020/03/21 05:44:51;;;;;;;21.15;15.05;;;;;;;7.45;94.9375;95290.58;;;;
2020/03/21 05:45:52;;;;;;;21.15;15.05;;;;;;;7.45;94.9375;95290.58;;;;
2020/03/21 05:46:52;;;;;;;21.15;15.05;;;;;;;7.45;94.9375;95290.58;;;;
2020/03/21 05:47:52;;;;;;;21.15;15.05;;;;;;;7.45;94.9375;95290.58;;;;
2020/03/21 05:48:53;;;;;;;21.15;15.05;;;;;;;7.45;94.9375;95290.58;;;;
2020/03/21 05:49:53;;;;;;;21.15;15.05;;;;;;;7.45;94.9375;95290.58;;;;
2020/03/21 05:50:54;;;;;;;22.7;16.2;;;;;;;7.3;94.74609;95290.07;;;;
2020/03/21 05:51:54;;;;;;;22.7;16.2;;;;;;;7.3;94.74609;95290.07;;;;
2020/03/21 05:52:55;;;;;;;22.7;16.2;;;;;;;7.3;94.74609;95290.07;;;;
2020/03/21 05:53:56;;;;;;;22.7;16.2;;;;;;;7.3;94.74609;95290.07;;;;
2020/03/21 05:54:58;;;;;;;22.7;16.2;;;;;;;7.3;94.74609;95290.07;;;;
2020/03/21 05:55:58;;;;;;;22.7;16.2;;;;;;;7.3;94.74609;95290.07;;;;
2020/03/21 05:56:59;;;;;;;22.7;16.2;;;;;;;7.3;94.74609;95290.07;;;;
2020/03/21 05:57:59;;;;;;;22.7;16.2;;;;;;;7.3;94.74609;95290.07;;;;
2020/03/21 05:58:59;;;;;;;22.7;16.2;;;;;;;7.3;94.74609;95290.07;;;;
2020/03/21 06:00:00;;;;;;;22.7;16.2;;;;;;;7.3;94.74609;95290.07;;;;
2020/03/21 06:01:01;;;;;;;22.7;16.2;;;;;;;7.3;94.74609;95290.07;;;;